createdAt,value
2023-04-23T00:02:16.815Z,76.80
2023-04-23T00:12:18.928Z,77.70
2023-04-23T00:22:20.632Z,78.00
2023-04-23T00:32:22.851Z,79.40
2023-04-23T00:42:25.207Z,80.50
2023-04-23T00:52:26.991Z,81.30
2023-04-23T01:02:30.940Z,82.10
2023-04-23T01:12:33.511Z,82.70
2023-04-23T01:22:38.438Z,83.30
2023-04-23T01:32:41.064Z,84.20
2023-04-23T01:42:43.012Z,85.00
2023-04-23T01:52:45.792Z,88.50
2023-04-23T02:02:48.146Z,90.60
2023-04-23T02:12:49.952Z,91.00
2023-04-23T02:22:52.963Z,93.00
2023-04-23T02:32:54.726Z,94.10
2023-04-23T02:42:56.522Z,94.30
2023-04-23T02:52:58.197Z,95.00
2023-04-23T03:02:59.955Z,95.50
2023-04-23T03:13:01.706Z,95.90
2023-04-23T03:23:06.383Z,96.40
2023-04-23T03:33:08.132Z,96.80
2023-04-23T03:43:09.789Z,97.10
2023-04-23T03:53:11.522Z,97.20
2023-04-23T04:03:13.341Z,97.30
2023-04-23T04:13:16.121Z,97.50
2023-04-23T04:23:17.872Z,97.40
2023-04-23T04:33:20.492Z,97.40
2023-04-23T04:43:22.194Z,97.60
2023-04-23T04:53:23.905Z,97.00
2023-04-23T05:03:26.323Z,96.40
2023-04-23T05:13:28.069Z,96.70
2023-04-23T05:23:29.950Z,97.00
2023-04-23T05:33:39.172Z,97.20
2023-04-23T05:43:48.374Z,97.40
2023-04-23T05:53:50.014Z,97.40
2023-04-23T06:03:52.381Z,97.60
2023-04-23T06:13:56.638Z,97.90
2023-04-23T06:23:58.304Z,98.00
2023-04-23T06:34:00.022Z,97.60
2023-04-23T06:44:01.739Z,97.20
2023-04-23T06:54:03.523Z,96.30
2023-04-23T07:04:05.247Z,94.50
2023-04-23T07:14:06.952Z,94.50
2023-04-23T07:24:08.876Z,93.30
2023-04-23T07:34:10.768Z,93.30
2023-04-23T07:44:12.763Z,92.80
2023-04-23T07:54:14.429Z,92.00
2023-04-23T08:04:16.235Z,90.30
2023-04-23T08:14:18.619Z,88.50
2023-04-23T08:24:20.304Z,89.00
2023-04-23T08:34:22.034Z,87.70
2023-04-23T08:44:25.978Z,86.90
2023-04-23T08:54:28.922Z,86.00
2023-04-23T09:04:31.656Z,84.30
2023-04-23T09:14:34.290Z,80.90
2023-04-23T09:24:36.101Z,78.70
2023-04-23T09:34:37.935Z,77.00
2023-04-23T09:44:39.610Z,75.20
2023-04-23T09:54:42.395Z,76.60
2023-04-23T10:04:44.257Z,76.40
2023-04-23T10:14:46.776Z,76.40
2023-04-23T10:24:53.109Z,74.10
2023-04-23T10:34:54.777Z,71.80
2023-04-23T10:45:04.660Z,67.90
2023-04-23T10:55:17.812Z,62.50
2023-04-23T11:05:19.603Z,62.30
2023-04-23T11:15:21.374Z,59.90
2023-04-23T11:25:24.814Z,58.90
2023-04-23T11:35:28.563Z,58.60
2023-04-23T11:45:30.673Z,59.50
2023-04-23T11:55:32.320Z,58.50
2023-04-23T12:05:42.340Z,57.00
2023-04-23T12:15:58.898Z,56.70
2023-04-23T12:26:00.579Z,56.30
2023-04-23T12:36:03.968Z,53.10
2023-04-23T12:46:06.050Z,53.30
2023-04-23T12:56:07.709Z,52.90
2023-04-23T13:06:09.390Z,51.50
2023-04-23T13:16:11.870Z,51.00
2023-04-23T13:26:14.181Z,50.00
2023-04-23T13:36:15.863Z,50.70
2023-04-23T13:46:17.808Z,50.10
2023-04-23T13:56:19.556Z,49.20
2023-04-23T14:06:21.297Z,45.60
2023-04-23T14:16:23.081Z,40.00
2023-04-23T14:36:36.830Z,32.70
2023-04-23T14:56:41.773Z,32.00
2023-04-23T15:06:43.433Z,31.20
2023-04-23T15:16:49.276Z,34.60
2023-04-23T15:26:53.327Z,35.50
2023-04-23T15:36:55.121Z,37.90
2023-04-23T15:46:56.992Z,38.50
2023-04-23T15:56:58.856Z,40.50
2023-04-23T16:07:00.605Z,40.90
2023-04-23T16:17:02.448Z,41.60
2023-04-23T16:27:06.311Z,42.40
2023-04-23T16:37:08.105Z,43.20
2023-04-23T16:47:09.814Z,44.20
2023-04-23T16:57:11.502Z,44.90
2023-04-23T17:07:13.163Z,45.60
2023-04-23T17:17:14.847Z,46.20
2023-04-23T17:27:16.538Z,46.80
2023-04-23T17:37:18.309Z,47.40
2023-04-23T17:47:20.127Z,48.10
2023-04-23T17:57:21.784Z,49.10
2023-04-23T18:07:23.482Z,50.00
2023-04-23T18:17:25.929Z,50.70
2023-04-23T18:27:27.617Z,51.60
2023-04-23T18:37:52.694Z,69.10
2023-04-23T18:48:02.731Z,92.10
2023-04-23T18:58:04.469Z,95.90
2023-04-23T19:08:06.159Z,96.60
2023-04-23T19:18:08.081Z,96.80
2023-04-23T19:28:09.758Z,96.80
2023-04-23T19:38:11.674Z,97.30
2023-04-23T19:48:13.361Z,98.00
2023-04-23T19:58:16.012Z,97.90
2023-04-23T20:08:29.007Z,98.40
2023-04-23T20:18:35.104Z,98.50
2023-04-23T20:28:37.141Z,98.50
2023-04-23T20:38:39.053Z,98.20
2023-04-23T20:48:43.364Z,98.60
2023-04-23T20:58:45.250Z,98.60
2023-04-23T21:08:47.387Z,98.50
2023-04-23T21:18:49.061Z,98.50
2023-04-23T21:28:50.726Z,98.30
2023-04-23T21:38:53.103Z,98.30
2023-04-23T21:48:54.808Z,98.00
2023-04-23T21:58:56.524Z,98.20
2023-04-23T22:08:58.168Z,98.20
2023-04-23T22:19:00.455Z,98.30
2023-04-23T22:29:02.545Z,98.20
2023-04-23T22:39:05.848Z,97.90
2023-04-23T22:49:11.222Z,97.80
2023-04-23T22:59:13.543Z,98.20
2023-04-23T23:09:15.284Z,98.00
2023-04-23T23:19:16.973Z,97.60
2023-04-23T23:29:18.795Z,97.80
2023-04-23T23:39:20.504Z,97.50
2023-04-23T23:49:22.200Z,97.40
2023-04-23T23:59:24.122Z,96.70
